sensor_id;sensor_type;location;lat;lon;timestamp;pressure;altitude;pressure_sealevel;temperature;humidity
72285;BME280;60220;53.552;10.092;2022-07-25T00:00:01;101033.97;;;24.05;51.17
72285;BME280;60220;53.552;10.092;2022-07-25T00:02:28;101031.84;;;24.10;51.10
72285;BME280;60220;53.552;10.092;2022-07-25T00:04:54;101038.22;;;23.23;52.15
72285;BME280;60220;53.552;10.092;2022-07-25T00:07:20;101032.78;;;23.24;52.04
72285;BME280;60220;53.552;10.092;2022-07-25T00:09:45;101030.53;;;23.46;51.51
72285;BME280;60220;53.552;10.092;2022-07-25T00:12:13;101022.66;;;23.29;52.09
72285;BME280;60220;53.552;10.092;2022-07-25T00:14:41;101018.53;;;23.24;51.80
72285;BME280;60220;53.552;10.092;2022-07-25T00:17:09;101018.19;;;23.58;51.69
72285;BME280;60220;53.552;10.092;2022-07-25T00:19:37;101011.91;;;24.14;50.83
72285;BME280;60220;53.552;10.092;2022-07-25T00:22:05;101015.69;;;23.83;51.38
72285;BME280;60220;53.552;10.092;2022-07-25T00:24:30;101014.25;;;23.64;50.64
72285;BME280;60220;53.552;10.092;2022-07-25T00:26:56;101015.59;;;23.85;50.68
72285;BME280;60220;53.552;10.092;2022-07-25T00:29:24;101016.00;;;23.50;51.57
72285;BME280;60220;53.552;10.092;2022-07-25T00:31:50;101011.56;;;23.35;51.38
72285;BME280;60220;53.552;10.092;2022-07-25T00:34:16;101016.31;;;23.16;52.31
72285;BME280;60220;53.552;10.092;2022-07-25T00:36:41;101017.91;;;22.90;52.92
72285;BME280;60220;53.552;10.092;2022-07-25T00:39:07;101017.16;;;22.72;52.89
72285;BME280;60220;53.552;10.092;2022-07-25T00:41:32;101005.91;;;22.82;52.57
72285;BME280;60220;53.552;10.092;2022-07-25T00:43:57;101009.78;;;22.46;53.52
72285;BME280;60220;53.552;10.092;2022-07-25T00:46:23;101009.56;;;22.81;52.87
72285;BME280;60220;53.552;10.092;2022-07-25T00:48:48;101005.69;;;22.70;53.19
72285;BME280;60220;53.552;10.092;2022-07-25T00:51:14;101007.16;;;23.20;52.77
72285;BME280;60220;53.552;10.092;2022-07-25T00:53:43;101007.84;;;22.48;53.56
72285;BME280;60220;53.552;10.092;2022-07-25T00:56:12;101001.72;;;22.92;52.63
72285;BME280;60220;53.552;10.092;2022-07-25T00:58:37;100999.63;;;22.97;52.96
72285;BME280;60220;53.552;10.092;2022-07-25T01:01:03;100999.38;;;22.71;52.83
72285;BME280;60220;53.552;10.092;2022-07-25T01:03:29;101001.59;;;22.63;53.33
72285;BME280;60220;53.552;10.092;2022-07-25T01:05:57;100995.41;;;22.93;52.94
72285;BME280;60220;53.552;10.092;2022-07-25T01:08:30;100991.22;;;22.89;52.02
72285;BME280;60220;53.552;10.092;2022-07-25T01:11:01;100993.16;;;23.15;51.51
72285;BME280;60220;53.552;10.092;2022-07-25T01:13:26;100991.75;;;23.24;51.76
72285;BME280;60220;53.552;10.092;2022-07-25T01:15:55;100979.78;;;23.01;52.64
72285;BME280;60220;53.552;10.092;2022-07-25T01:18:20;100974.81;;;23.23;52.42
72285;BME280;60220;53.552;10.092;2022-07-25T01:20:46;100984.56;;;23.24;51.87
72285;BME280;60220;53.552;10.092;2022-07-25T01:23:13;100980.53;;;23.17;52.78
72285;BME280;60220;53.552;10.092;2022-07-25T01:25:41;100984.94;;;23.04;52.59
72285;BME280;60220;53.552;10.092;2022-07-25T01:28:09;100974.63;;;23.26;52.05
72285;BME280;60220;53.552;10.092;2022-07-25T01:30:36;100982.84;;;23.23;52.05
72285;BME280;60220;53.552;10.092;2022-07-25T01:33:04;100970.00;;;23.42;51.42
72285;BME280;60220;53.552;10.092;2022-07-25T01:35:30;100978.09;;;22.84;52.55
72285;BME280;60220;53.552;10.092;2022-07-25T01:38:00;100972.06;;;22.81;52.79
72285;BME280;60220;53.552;10.092;2022-07-25T01:40:25;100966.03;;;23.21;51.41
72285;BME280;60220;53.552;10.092;2022-07-25T01:42:51;100968.63;;;22.93;51.86
72285;BME280;60220;53.552;10.092;2022-07-25T01:45:18;100970.72;;;22.73;52.67
72285;BME280;60220;53.552;10.092;2022-07-25T01:47:44;100965.69;;;22.97;51.97
72285;BME280;60220;53.552;10.092;2022-07-25T01:50:11;100964.06;;;22.95;52.62
72285;BME280;60220;53.552;10.092;2022-07-25T01:52:41;100963.63;;;22.72;51.96
72285;BME280;60220;53.552;10.092;2022-07-25T01:55:10;100956.72;;;22.68;51.63
72285;BME280;60220;53.552;10.092;2022-07-25T01:57:36;100961.91;;;22.71;52.48
72285;BME280;60220;53.552;10.092;2022-07-25T02:00:04;100953.81;;;22.57;52.01
72285;BME280;60220;53.552;10.092;2022-07-25T02:02:33;100946.91;;;22.83;50.89
72285;BME280;60220;53.552;10.092;2022-07-25T02:04:58;100949.22;;;22.29;51.71
72285;BME280;60220;53.552;10.092;2022-07-25T02:07:24;100941.47;;;22.55;51.82
72285;BME280;60220;53.552;10.092;2022-07-25T02:09:49;100940.09;;;22.18;51.67
72285;BME280;60220;53.552;10.092;2022-07-25T02:12:17;100936.84;;;22.43;50.77
72285;BME280;60220;53.552;10.092;2022-07-25T02:14:42;100923.34;;;22.30;50.50
72285;BME280;60220;53.552;10.092;2022-07-25T02:17:10;100935.56;;;22.34;51.58
72285;BME280;60220;53.552;10.092;2022-07-25T02:19:38;100924.16;;;22.46;51.11
72285;BME280;60220;53.552;10.092;2022-07-25T02:22:07;100927.47;;;22.36;50.60
72285;BME280;60220;53.552;10.092;2022-07-25T02:24:32;100918.88;;;22.15;51.05
72285;BME280;60220;53.552;10.092;2022-07-25T02:27:02;100914.81;;;22.23;50.92
72285;BME280;60220;53.552;10.092;2022-07-25T02:29:29;100914.94;;;21.90;51.28
72285;BME280;60220;53.552;10.092;2022-07-25T02:32:01;100905.00;;;21.92;50.83
72285;BME280;60220;53.552;10.092;2022-07-25T02:34:26;100903.19;;;21.77;51.88
72285;BME280;60220;53.552;10.092;2022-07-25T02:36:52;100900.38;;;21.65;53.11
72285;BME280;60220;53.552;10.092;2022-07-25T02:39:20;100892.34;;;21.65;52.89
72285;BME280;60220;53.552;10.092;2022-07-25T02:41:46;100898.66;;;21.95;51.30
72285;BME280;60220;53.552;10.092;2022-07-25T02:44:11;100889.59;;;21.98;50.65
72285;BME280;60220;53.552;10.092;2022-07-25T02:46:37;100892.84;;;21.87;50.79
72285;BME280;60220;53.552;10.092;2022-07-25T02:49:03;100891.22;;;22.00;50.62
72285;BME280;60220;53.552;10.092;2022-07-25T02:51:29;100883.88;;;22.04;50.30
72285;BME280;60220;53.552;10.092;2022-07-25T02:53:54;100891.81;;;21.58;51.06
72285;BME280;60220;53.552;10.092;2022-07-25T02:56:22;100884.59;;;21.92;50.36
72285;BME280;60220;53.552;10.092;2022-07-25T02:58:49;100885.47;;;21.76;50.15
72285;BME280;60220;53.552;10.092;2022-07-25T03:01:19;100880.53;;;21.53;50.25
72285;BME280;60220;53.552;10.092;2022-07-25T03:03:45;100882.19;;;21.40;50.65
72285;BME280;60220;53.552;10.092;2022-07-25T03:06:10;100874.06;;;21.57;51.08
72285;BME280;60220;53.552;10.092;2022-07-25T03:08:35;100881.66;;;21.49;50.13
72285;BME280;60220;53.552;10.092;2022-07-25T03:11:01;100880.78;;;21.48;49.97
72285;BME280;60220;53.552;10.092;2022-07-25T03:13:26;100875.63;;;21.61;50.71
72285;BME280;60220;53.552;10.092;2022-07-25T03:15:52;100879.50;;;21.24;50.50
72285;BME280;60220;53.552;10.092;2022-07-25T03:18:17;100872.97;;;21.45;50.15
72285;BME280;60220;53.552;10.092;2022-07-25T03:20:43;100868.13;;;21.52;49.81
72285;BME280;60220;53.552;10.092;2022-07-25T03:23:10;100861.31;;;21.31;50.93
72285;BME280;60220;53.552;10.092;2022-07-25T03:25:38;100849.84;;;21.29;49.81
72285;BME280;60220;53.552;10.092;2022-07-25T03:28:06;100853.41;;;21.29;51.04
72285;BME280;60220;53.552;10.092;2022-07-25T03:30:35;100846.16;;;20.98;50.37
72285;BME280;60220;53.552;10.092;2022-07-25T03:33:00;100843.56;;;21.30;50.15
72285;BME280;60220;53.552;10.092;2022-07-25T03:35:25;100842.38;;;21.20;50.23
72285;BME280;60220;53.552;10.092;2022-07-25T03:37:51;100837.03;;;21.20;50.60
72285;BME280;60220;53.552;10.092;2022-07-25T03:40:20;100834.28;;;20.88;51.25
72285;BME280;60220;53.552;10.092;2022-07-25T03:42:50;100830.34;;;20.95;50.92
72285;BME280;60220;53.552;10.092;2022-07-25T03:45:17;100824.81;;;21.16;49.74
72285;BME280;60220;53.552;10.092;2022-07-25T03:47:43;100824.22;;;20.93;50.50
72285;BME280;60220;53.552;10.092;2022-07-25T03:50:09;100825.25;;;20.91;50.68
72285;BME280;60220;53.552;10.092;2022-07-25T03:52:37;100821.22;;;20.99;50.55
72285;BME280;60220;53.552;10.092;2022-07-25T03:55:05;100817.03;;;20.78;51.68
72285;BME280;60220;53.552;10.092;2022-07-25T03:57:30;100814.78;;;20.71;51.66
72285;BME280;60220;53.552;10.092;2022-07-25T03:59:56;100804.00;;;21.05;49.59
72285;BME280;60220;53.552;10.092;2022-07-25T04:02:23;100811.66;;;20.95;49.77
72285;BME280;60220;53.552;10.092;2022-07-25T04:04:49;100813.16;;;20.84;50.16
72285;BME280;60220;53.552;10.092;2022-07-25T04:07:15;100803.41;;;21.00;50.07
72285;BME280;60220;53.552;10.092;2022-07-25T04:09:43;100806.25;;;20.64;50.90
72285;BME280;60220;53.552;10.092;2022-07-25T04:12:11;100806.00;;;21.01;49.73
72285;BME280;60220;53.552;10.092;2022-07-25T04:14:36;100798.41;;;21.10;49.70
72285;BME280;60220;53.552;10.092;2022-07-25T04:17:02;100795.31;;;21.33;49.61
72285;BME280;60220;53.552;10.092;2022-07-25T04:19:28;100796.81;;;20.74;50.48
72285;BME280;60220;53.552;10.092;2022-07-25T04:21:53;100792.91;;;20.97;50.08
72285;BME280;60220;53.552;10.092;2022-07-25T04:24:18;100790.84;;;21.33;49.17
72285;BME280;60220;53.552;10.092;2022-07-25T04:26:46;100784.06;;;21.28;49.53
72285;BME280;60220;53.552;10.092;2022-07-25T04:29:11;100778.22;;;21.21;49.70
72285;BME280;60220;53.552;10.092;2022-07-25T04:31:37;100770.03;;;21.24;49.39
72285;BME280;60220;53.552;10.092;2022-07-25T04:34:02;100764.69;;;21.24;49.69
72285;BME280;60220;53.552;10.092;2022-07-25T04:36:30;100763.28;;;21.17;49.54
72285;BME280;60220;53.552;10.092;2022-07-25T04:39:03;100759.69;;;21.34;49.01
72285;BME280;60220;53.552;10.092;2022-07-25T04:41:31;100751.59;;;21.20;49.41
72285;BME280;60220;53.552;10.092;2022-07-25T04:43:57;100755.50;;;21.13;50.19
72285;BME280;60220;53.552;10.092;2022-07-25T04:46:24;100753.75;;;21.74;48.93
72285;BME280;60220;53.552;10.092;2022-07-25T04:48:52;100746.06;;;21.38;48.74
72285;BME280;60220;53.552;10.092;2022-07-25T04:51:20;100741.69;;;21.22;49.47
72285;BME280;60220;53.552;10.092;2022-07-25T04:53:45;100740.09;;;21.49;49.05
72285;BME280;60220;53.552;10.092;2022-07-25T04:56:11;100736.22;;;21.55;49.84
72285;BME280;60220;53.552;10.092;2022-07-25T04:58:36;100733.63;;;21.53;48.79
72285;BME280;60220;53.552;10.092;2022-07-25T05:01:04;100740.16;;;21.63;48.95
72285;BME280;60220;53.552;10.092;2022-07-25T05:03:30;100736.06;;;22.46;47.34
72285;BME280;60220;53.552;10.092;2022-07-25T05:05:55;100727.28;;;21.70;48.17
72285;BME280;60220;53.552;10.092;2022-07-25T05:08:21;100721.59;;;22.48;47.25
72285;BME280;60220;53.552;10.092;2022-07-25T05:10:46;100722.19;;;22.25;48.15
72285;BME280;60220;53.552;10.092;2022-07-25T05:13:14;100722.50;;;21.90;48.07
72285;BME280;60220;53.552;10.092;2022-07-25T05:15:41;100723.28;;;22.07;47.38
72285;BME280;60220;53.552;10.092;2022-07-25T05:18:10;100716.84;;;22.25;47.48
72285;BME280;60220;53.552;10.092;2022-07-25T05:20:36;100702.75;;;22.07;47.51
72285;BME280;60220;53.552;10.092;2022-07-25T05:23:02;100707.19;;;22.51;47.01
72285;BME280;60220;53.552;10.092;2022-07-25T05:25:27;100702.50;;;21.82;48.53
72285;BME280;60220;53.552;10.092;2022-07-25T05:27:55;100700.97;;;22.50;47.53
72285;BME280;60220;53.552;10.092;2022-07-25T05:30:27;100694.19;;;22.59;47.25
72285;BME280;60220;53.552;10.092;2022-07-25T05:32:53;100692.41;;;22.31;47.65
72285;BME280;60220;53.552;10.092;2022-07-25T05:35:18;100694.28;;;22.43;46.74
72285;BME280;60220;53.552;10.092;2022-07-25T05:37:44;100686.06;;;22.60;46.43
72285;BME280;60220;53.552;10.092;2022-07-25T05:40:09;100691.59;;;22.86;46.70
72285;BME280;60220;53.552;10.092;2022-07-25T05:42:39;100681.56;;;22.47;46.82
72285;BME280;60220;53.552;10.092;2022-07-25T05:45:08;100689.91;;;22.70;46.90
72285;BME280;60220;53.552;10.092;2022-07-25T05:47:33;100676.09;;;22.62;46.74
72285;BME280;60220;53.552;10.092;2022-07-25T05:50:01;100679.56;;;22.79;47.03
72285;BME280;60220;53.552;10.092;2022-07-25T05:52:29;100678.41;;;22.68;47.03
72285;BME280;60220;53.552;10.092;2022-07-25T05:54:56;100671.88;;;23.01;46.22
72285;BME280;60220;53.552;10.092;2022-07-25T05:57:26;100677.06;;;22.90;47.20
72285;BME280;60220;53.552;10.092;2022-07-25T05:59:52;100669.69;;;23.20;46.57
72285;BME280;60220;53.552;10.092;2022-07-25T06:02:17;100662.94;;;22.73;46.92
72285;BME280;60220;53.552;10.092;2022-07-25T06:04:45;100663.72;;;22.76;47.63
72285;BME280;60220;53.552;10.092;2022-07-25T06:07:13;100657.19;;;22.65;47.09
72285;BME280;60220;53.552;10.092;2022-07-25T06:09:38;100657.81;;;23.64;45.10
72285;BME280;60220;53.552;10.092;2022-07-25T06:12:04;100650.25;;;23.43;45.30
72285;BME280;60220;53.552;10.092;2022-07-25T06:14:30;100654.13;;;23.52;45.82
72285;BME280;60220;53.552;10.092;2022-07-25T06:16:57;100649.25;;;23.84;45.23
72285;BME280;60220;53.552;10.092;2022-07-25T06:19:23;100641.75;;;23.89;45.03
72285;BME280;60220;53.552;10.092;2022-07-25T06:21:49;100639.59;;;24.07;44.39
72285;BME280;60220;53.552;10.092;2022-07-25T06:24:17;100638.53;;;23.84;44.70
72285;BME280;60220;53.552;10.092;2022-07-25T06:26:42;100636.47;;;23.49;46.06
72285;BME280;60220;53.552;10.092;2022-07-25T06:29:08;100634.66;;;23.50;46.03
72285;BME280;60220;53.552;10.092;2022-07-25T06:31:33;100626.09;;;23.70;46.19
72285;BME280;60220;53.552;10.092;2022-07-25T06:33:58;100627.72;;;23.33;46.82
72285;BME280;60220;53.552;10.092;2022-07-25T06:36:24;100628.09;;;23.67;45.69
72285;BME280;60220;53.552;10.092;2022-07-25T06:38:49;100622.09;;;24.26;44.32
72285;BME280;60220;53.552;10.092;2022-07-25T06:41:15;100620.84;;;23.94;45.10
72285;BME280;60220;53.552;10.092;2022-07-25T06:43:41;100623.09;;;23.87;45.45
72285;BME280;60220;53.552;10.092;2022-07-25T06:46:09;100613.44;;;24.10;45.43
72285;BME280;60220;53.552;10.092;2022-07-25T06:48:34;100615.88;;;24.38;44.79
72285;BME280;60220;53.552;10.092;2022-07-25T06:51:02;100619.16;;;25.15;42.97
72285;BME280;60220;53.552;10.092;2022-07-25T06:53:28;100613.47;;;25.30;42.90
72285;BME280;60220;53.552;10.092;2022-07-25T06:55:58;100616.31;;;25.05;43.31
72285;BME280;60220;53.552;10.092;2022-07-25T06:58:23;100616.47;;;24.91;44.17
72285;BME280;60220;53.552;10.092;2022-07-25T07:00:49;100615.56;;;25.03;44.61
72285;BME280;60220;53.552;10.092;2022-07-25T07:03:17;100610.94;;;25.05;42.93
72285;BME280;60220;53.552;10.092;2022-07-25T07:05:42;100605.50;;;24.94;43.48
72285;BME280;60220;53.552;10.092;2022-07-25T07:08:07;100598.78;;;24.76;43.95
72285;BME280;60220;53.552;10.092;2022-07-25T07:10:35;100597.03;;;25.11;43.90
72285;BME280;60220;53.552;10.092;2022-07-25T07:13:03;100593.53;;;24.74;44.29
72285;BME280;60220;53.552;10.092;2022-07-25T07:15:28;100586.19;;;24.89;44.38
72285;BME280;60220;53.552;10.092;2022-07-25T07:17:54;100595.38;;;24.98;44.04
72285;BME280;60220;53.552;10.092;2022-07-25T07:20:20;100592.66;;;25.21;43.63
72285;BME280;60220;53.552;10.092;2022-07-25T07:22:48;100583.91;;;25.30;44.39
72285;BME280;60220;53.552;10.092;2022-07-25T07:25:15;100586.00;;;26.51;42.16
72285;BME280;60220;53.552;10.092;2022-07-25T07:27:42;100579.66;;;26.41;43.29
72285;BME280;60220;53.552;10.092;2022-07-25T07:30:08;100578.94;;;26.82;41.62
72285;BME280;60220;53.552;10.092;2022-07-25T07:32:36;100571.75;;;27.14;41.89
72285;BME280;60220;53.552;10.092;2022-07-25T07:35:06;100571.13;;;27.63;40.59
72285;BME280;60220;53.552;10.092;2022-07-25T07:37:35;100570.78;;;27.57;40.81
72285;BME280;60220;53.552;10.092;2022-07-25T07:40:03;100562.94;;;27.74;39.74
72285;BME280;60220;53.552;10.092;2022-07-25T07:42:45;100556.66;;;27.64;40.56
72285;BME280;60220;53.552;10.092;2022-07-25T07:45:17;100564.38;;;27.78;39.31
72285;BME280;60220;53.552;10.092;2022-07-25T07:47:43;100549.38;;;27.65;38.50
72285;BME280;60220;53.552;10.092;2022-07-25T07:50:11;100554.78;;;27.95;39.07
72285;BME280;60220;53.552;10.092;2022-07-25T07:52:38;100542.78;;;28.39;39.22
72285;BME280;60220;53.552;10.092;2022-07-25T07:55:04;100546.44;;;28.29;40.31
72285;BME280;60220;53.552;10.092;2022-07-25T07:57:48;100555.94;;;28.82;38.38
72285;BME280;60220;53.552;10.092;2022-07-25T08:00:14;100536.50;;;28.39;39.48
72285;BME280;60220;53.552;10.092;2022-07-25T08:02:45;100547.06;;;28.71;37.69
72285;BME280;60220;53.552;10.092;2022-07-25T08:05:12;100542.56;;;28.90;38.42
72285;BME280;60220;53.552;10.092;2022-07-25T08:07:38;100534.31;;;28.82;38.27
72285;BME280;60220;53.552;10.092;2022-07-25T08:10:04;100530.06;;;30.11;35.92
72285;BME280;60220;53.552;10.092;2022-07-25T08:12:32;100528.34;;;29.07;37.03
72285;BME280;60220;53.552;10.092;2022-07-25T08:15:00;100529.78;;;28.83;38.19
72285;BME280;60220;53.552;10.092;2022-07-25T08:17:28;100525.06;;;29.14;38.01
72285;BME280;60220;53.552;10.092;2022-07-25T08:19:53;100514.69;;;29.09;37.58
72285;BME280;60220;53.552;10.092;2022-07-25T08:22:21;100516.97;;;29.70;36.22
72285;BME280;60220;53.552;10.092;2022-07-25T08:24:47;100511.53;;;28.85;37.78
72285;BME280;60220;53.552;10.092;2022-07-25T08:27:12;100516.66;;;28.59;36.85
72285;BME280;60220;53.552;10.092;2022-07-25T08:29:41;100512.06;;;29.46;37.40
72285;BME280;60220;53.552;10.092;2022-07-25T08:32:06;100508.38;;;29.28;35.01
72285;BME280;60220;53.552;10.092;2022-07-25T08:34:31;100513.09;;;29.35;34.99
72285;BME280;60220;53.552;10.092;2022-07-25T08:36:57;100504.59;;;28.92;35.07
72285;BME280;60220;53.552;10.092;2022-07-25T08:39:22;100505.91;;;30.00;33.38
72285;BME280;60220;53.552;10.092;2022-07-25T08:41:48;100503.97;;;29.83;34.51
72285;BME280;60220;53.552;10.092;2022-07-25T08:44:16;100497.03;;;30.08;33.94
72285;BME280;60220;53.552;10.092;2022-07-25T08:46:45;100488.09;;;29.61;33.68
72285;BME280;60220;53.552;10.092;2022-07-25T08:49:12;100492.16;;;30.11;34.72
72285;BME280;60220;53.552;10.092;2022-07-25T08:51:40;100481.13;;;31.03;32.48
72285;BME280;60220;53.552;10.092;2022-07-25T08:54:07;100485.13;;;30.81;32.94
72285;BME280;60220;53.552;10.092;2022-07-25T08:56:34;100484.50;;;30.87;33.27
72285;BME280;60220;53.552;10.092;2022-07-25T08:58:59;100471.63;;;30.89;33.18
72285;BME280;60220;53.552;10.092;2022-07-25T09:01:25;100475.56;;;30.42;33.61
72285;BME280;60220;53.552;10.092;2022-07-25T09:03:53;100467.06;;;30.90;31.88
72285;BME280;60220;53.552;10.092;2022-07-25T09:06:20;100469.97;;;30.53;32.73
72285;BME280;60220;53.552;10.092;2022-07-25T09:08:55;100469.31;;;30.59;32.87
72285;BME280;60220;53.552;10.092;2022-07-25T09:14:22;100464.97;;;30.30;33.74
72285;BME280;60220;53.552;10.092;2022-07-25T09:16:49;100460.53;;;30.12;33.07
72285;BME280;60220;53.552;10.092;2022-07-25T09:19:22;100464.03;;;30.22;34.43
72285;BME280;60220;53.552;10.092;2022-07-25T09:24:27;100471.22;;;29.76;35.18
72285;BME280;60220;53.552;10.092;2022-07-25T09:26:55;100451.88;;;30.97;32.48
72285;BME280;60220;53.552;10.092;2022-07-25T09:29:32;100457.25;;;29.81;34.12
72285;BME280;60220;53.552;10.092;2022-07-25T09:31:59;100451.06;;;30.61;32.95
72285;BME280;60220;53.552;10.092;2022-07-25T09:34:32;100446.84;;;30.84;33.47
72285;BME280;60220;53.552;10.092;2022-07-25T09:36:59;100439.28;;;30.70;33.77
72285;BME280;60220;53.552;10.092;2022-07-25T09:39:50;100445.44;;;31.15;34.11
72285;BME280;60220;53.552;10.092;2022-07-25T09:47:27;100424.63;;;30.98;33.86
72285;BME280;60220;53.552;10.092;2022-07-25T09:49:53;100434.09;;;31.20;32.95
72285;BME280;60220;53.552;10.092;2022-07-25T09:52:19;100423.59;;;30.99;33.07
72285;BME280;60220;53.552;10.092;2022-07-25T09:54:44;100429.06;;;30.82;33.44
72285;BME280;60220;53.552;10.092;2022-07-25T09:57:10;100426.31;;;30.56;34.31
72285;BME280;60220;53.552;10.092;2022-07-25T09:59:40;100412.75;;;30.73;32.94
72285;BME280;60220;53.552;10.092;2022-07-25T10:02:08;100413.09;;;30.78;33.83
72285;BME280;60220;53.552;10.092;2022-07-25T10:04:50;100422.25;;;31.21;33.09
72285;BME280;60220;53.552;10.092;2022-07-25T10:07:21;100414.75;;;31.49;32.43
72285;BME280;60220;53.552;10.092;2022-07-25T10:09:50;100412.84;;;30.90;33.74
72285;BME280;60220;53.552;10.092;2022-07-25T10:12:19;100409.53;;;31.55;32.86
72285;BME280;60220;53.552;10.092;2022-07-25T10:15:09;100411.25;;;31.90;33.18
72285;BME280;60220;53.552;10.092;2022-07-25T10:17:40;100415.22;;;31.10;32.43
72285;BME280;60220;53.552;10.092;2022-07-25T10:20:09;100413.84;;;31.06;32.96
72285;BME280;60220;53.552;10.092;2022-07-25T10:22:40;100402.34;;;30.87;32.78
72285;BME280;60220;53.552;10.092;2022-07-25T10:25:09;100408.00;;;30.93;31.95
72285;BME280;60220;53.552;10.092;2022-07-25T10:27:41;100416.47;;;31.50;30.85
72285;BME280;60220;53.552;10.092;2022-07-25T10:30:45;100408.44;;;30.89;31.61
72285;BME280;60220;53.552;10.092;2022-07-25T10:33:17;100408.75;;;31.03;31.93
72285;BME280;60220;53.552;10.092;2022-07-25T10:35:44;100405.31;;;31.01;31.33
72285;BME280;60220;53.552;10.092;2022-07-25T10:38:12;100407.31;;;31.51;31.20
72285;BME280;60220;53.552;10.092;2022-07-25T10:40:43;100395.09;;;31.89;30.82
72285;BME280;60220;53.552;10.092;2022-07-25T10:43:20;100391.47;;;31.64;31.10
72285;BME280;60220;53.552;10.092;2022-07-25T10:48:29;100386.84;;;31.23;32.07
72285;BME280;60220;53.552;10.092;2022-07-25T10:51:16;100383.03;;;30.90;32.41
72285;BME280;60220;53.552;10.092;2022-07-25T10:53:47;100384.72;;;31.76;31.43
72285;BME280;60220;53.552;10.092;2022-07-25T10:56:19;100384.13;;;31.23;32.58
72285;BME280;60220;53.552;10.092;2022-07-25T10:58:56;100385.03;;;31.05;32.67
72285;BME280;60220;53.552;10.092;2022-07-25T11:01:22;100388.22;;;31.60;33.11
72285;BME280;60220;53.552;10.092;2022-07-25T11:03:52;100381.91;;;32.02;31.77
72285;BME280;60220;53.552;10.092;2022-07-25T11:06:33;100381.28;;;31.58;32.56
72285;BME280;60220;53.552;10.092;2022-07-25T11:08:59;100382.84;;;30.83;32.53
72285;BME280;60220;53.552;10.092;2022-07-25T11:11:35;100375.72;;;30.64;33.29
72285;BME280;60220;53.552;10.092;2022-07-25T11:14:01;100382.72;;;30.49;32.84
72285;BME280;60220;53.552;10.092;2022-07-25T11:16:27;100377.53;;;30.20;33.78
72285;BME280;60220;53.552;10.092;2022-07-25T11:18:52;100379.25;;;30.57;33.15
72285;BME280;60220;53.552;10.092;2022-07-25T11:21:19;100387.06;;;31.03;32.02
72285;BME280;60220;53.552;10.092;2022-07-25T11:23:49;100379.53;;;30.54;33.00
72285;BME280;60220;53.552;10.092;2022-07-25T11:26:15;100380.50;;;30.88;32.75
72285;BME280;60220;53.552;10.092;2022-07-25T11:28:44;100376.38;;;31.36;32.34
72285;BME280;60220;53.552;10.092;2022-07-25T11:31:11;100383.84;;;30.82;33.02
72285;BME280;60220;53.552;10.092;2022-07-25T11:33:39;100384.41;;;31.11;32.84
72285;BME280;60220;53.552;10.092;2022-07-25T11:36:08;100382.75;;;31.52;32.56
72285;BME280;60220;53.552;10.092;2022-07-25T11:38:35;100370.97;;;31.02;32.32
72285;BME280;60220;53.552;10.092;2022-07-25T11:41:01;100374.50;;;31.62;32.26
72285;BME280;60220;53.552;10.092;2022-07-25T11:43:29;100370.09;;;31.61;32.40
72285;BME280;60220;53.552;10.092;2022-07-25T11:48:33;100354.28;;;30.71;33.56
72285;BME280;60220;53.552;10.092;2022-07-25T11:51:17;100355.25;;;30.62;33.74
72285;BME280;60220;53.552;10.092;2022-07-25T11:53:49;100343.97;;;31.00;33.55
72285;BME280;60220;53.552;10.092;2022-07-25T11:58:55;100337.53;;;31.27;32.88
72285;BME280;60220;53.552;10.092;2022-07-25T12:01:23;100340.94;;;31.63;32.19
72285;BME280;60220;53.552;10.092;2022-07-25T12:03:49;100340.25;;;31.69;31.53
72285;BME280;60220;53.552;10.092;2022-07-25T12:06:15;100334.69;;;31.37;32.07
72285;BME280;60220;53.552;10.092;2022-07-25T12:08:43;100325.66;;;31.62;31.05
72285;BME280;60220;53.552;10.092;2022-07-25T12:11:19;100320.19;;;31.12;31.81
72285;BME280;60220;53.552;10.092;2022-07-25T12:13:48;100321.63;;;31.32;31.11
72285;BME280;60220;53.552;10.092;2022-07-25T12:16:16;100315.88;;;31.85;30.56
72285;BME280;60220;53.552;10.092;2022-07-25T12:18:41;100312.97;;;31.79;30.58
72285;BME280;60220;53.552;10.092;2022-07-25T12:21:07;100306.75;;;32.11;30.25
72285;BME280;60220;53.552;10.092;2022-07-25T12:23:33;100304.75;;;32.13;30.02
72285;BME280;60220;53.552;10.092;2022-07-25T12:25:59;100303.00;;;32.68;30.39
72285;BME280;60220;53.552;10.092;2022-07-25T12:28:24;100304.03;;;32.51;30.38
72285;BME280;60220;53.552;10.092;2022-07-25T12:30:52;100298.09;;;32.15;30.63
72285;BME280;60220;53.552;10.092;2022-07-25T12:33:17;100304.03;;;32.02;30.60
72285;BME280;60220;53.552;10.092;2022-07-25T12:35:43;100311.53;;;32.17;30.07
72285;BME280;60220;53.552;10.092;2022-07-25T12:38:09;100298.72;;;31.77;30.46
72285;BME280;60220;53.552;10.092;2022-07-25T12:40:35;100313.81;;;31.63;31.36
72285;BME280;60220;53.552;10.092;2022-07-25T12:43:01;100311.59;;;31.67;31.02
72285;BME280;60220;53.552;10.092;2022-07-25T12:45:32;100318.19;;;31.64;30.99
72285;BME280;60220;53.552;10.092;2022-07-25T12:47:57;100311.19;;;32.20;30.60
72285;BME280;60220;53.552;10.092;2022-07-25T12:50:22;100309.56;;;31.77;30.48
72285;BME280;60220;53.552;10.092;2022-07-25T12:52:50;100306.69;;;31.78;30.71
72285;BME280;60220;53.552;10.092;2022-07-25T12:55:18;100318.19;;;31.64;31.34
72285;BME280;60220;53.552;10.092;2022-07-25T12:57:44;100309.91;;;31.32;31.38
72285;BME280;60220;53.552;10.092;2022-07-25T13:00:13;100312.31;;;32.09;30.45